PWSweather.com
Personal Weather Stations
Station Observations
WESTON01
WestonSuperMareGB BS22 8RT

WestonSuperMareGB BS22 8RT

Lat: 51.351508, Lon: -2.933373

Elevation: 15

Station Type: Fine Offset WH1080

http://www.westonweather.co.uk

High Low Average
Temperature 68.3°F20.2°F 57.3°F14.1°F 62.6°F17.0°F
Dew Point 58.4°F14.7°F 48.0°F8.9°F 53.3°F11.8°F
Winds 16.1 mph -25.9 mph - 1.8 mph 2.9 mph 9.0 mph 14.5 mph
Wind Gusts 26.5 mph42.6 mph 3.6 mph5.8 mph 13.9 mph22.4 mph
Humidity 91% 55% 73%
Pressure 30.02 in1016.60 in 29.84 in1010.50 in -
Precipitation 5.47 in138.90 in - -
Hour Temp Dew Point Humidity Winds Wind Gusts Pressure Precip Precip Rate Daily Precip Total
12:00 AM 63.6°F17.6°C 57.7°F14.3°C 81% 5.2 mph SSW8.4 kmh SSW 9.5 mph15.3 kmh 29.90 in1012.5 mb 0.00 in0.0 mm 0.00 in0.0 mm 0.00 in0.0 mm
12:05 AM 63.6°F17.6°C 57.7°F14.3°C 81% 5.2 mph SSW8.4 kmh SSW 7.7 mph12.4 kmh 29.90 in1012.5 mb 0.00 in0.0 mm 0.00 in0.0 mm 0.00 in0.0 mm
12:10 AM 63.6°F17.6°C 57.7°F14.3°C 81% 5.5 mph SSW8.9 kmh SSW 7.7 mph12.4 kmh 29.90 in1012.5 mb 0.00 in0.0 mm 0.00 in0.0 mm 0.00 in0.0 mm
12:15 AM 63.6°F17.6°C 58.0°F14.4°C 82% 5.0 mph SW8.0 kmh SW 10.1 mph16.3 kmh 29.90 in1012.5 mb 0.00 in0.0 mm 0.00 in0.0 mm 0.00 in0.0 mm
12:20 AM 63.6°F17.6°C 58.0°F14.4°C 82% 5.6 mph S9.0 kmh S 10.1 mph16.3 kmh 29.90 in1012.5 mb 0.00 in0.0 mm 0.00 in0.0 mm 0.00 in0.0 mm
12:25 AM 63.6°F17.6°C 57.7°F14.3°C 81% 6.8 mph S10.9 kmh S 11.3 mph18.2 kmh 29.90 in1012.5 mb 0.00 in0.0 mm 0.00 in0.0 mm 0.00 in0.0 mm
12:30 AM 63.8°F17.7°C 57.8°F14.3°C 81% 7.9 mph SSW12.7 kmh SSW 11.3 mph18.2 kmh 29.90 in1012.5 mb 0.00 in0.0 mm 0.00 in0.0 mm 0.00 in0.0 mm
12:35 AM 63.8°F17.7°C 57.8°F14.3°C 81% 7.2 mph SW11.6 kmh SW 11.6 mph18.7 kmh 29.90 in1012.5 mb 0.00 in0.0 mm 0.00 in0.0 mm 0.00 in0.0 mm
12:40 AM 64.0°F17.8°C 58.0°F14.4°C 81% 7.2 mph SW11.6 kmh SW 11.6 mph18.7 kmh 29.90 in1012.5 mb 0.00 in0.0 mm 0.00 in0.0 mm 0.00 in0.0 mm
12:45 AM 64.0°F17.8°C 58.0°F14.4°C 81% 8.1 mph SSW13.0 kmh SSW 13.7 mph22.0 kmh 29.90 in1012.5 mb 0.00 in0.0 mm 0.00 in0.0 mm 0.00 in0.0 mm
12:50 AM 64.0°F17.8°C 58.0°F14.4°C 81% 8.3 mph S13.4 kmh S 13.7 mph22.0 kmh 29.90 in1012.5 mb 0.00 in0.0 mm 0.00 in0.0 mm 0.00 in0.0 mm
12:55 AM 64.0°F17.8°C 58.0°F14.4°C 81% 6.9 mph SSW11.1 kmh SSW 13.7 mph22.0 kmh 29.90 in1012.5 mb 0.00 in0.0 mm 0.00 in0.0 mm 0.00 in0.0 mm
01:00 AM 64.0°F17.8°C 58.0°F14.4°C 81% 5.7 mph SSW9.2 kmh SSW 7.7 mph12.4 kmh 29.90 in1012.5 mb 0.00 in0.0 mm 0.00 in0.0 mm 0.00 in0.0 mm
01:05 AM 64.0°F17.8°C 58.0°F14.4°C 81% 6.1 mph SSW9.8 kmh SSW 8.3 mph13.4 kmh 29.90 in1012.5 mb 0.00 in0.0 mm 0.00 in0.0 mm 0.00 in0.0 mm
01:10 AM 63.8°F17.7°C 57.8°F14.3°C 81% 6.2 mph SSW10.0 kmh SSW 8.3 mph13.4 kmh 29.87 in1011.5 mb 0.00 in0.0 mm 0.00 in0.0 mm 0.00 in0.0 mm
01:15 AM 63.8°F17.7°C 57.8°F14.3°C 81% 7.3 mph SSW11.7 kmh SSW 9.8 mph15.8 kmh 29.87 in1011.5 mb 0.00 in0.0 mm 0.00 in0.0 mm 0.00 in0.0 mm
01:20 AM 63.8°F17.7°C 57.8°F14.3°C 81% 8.0 mph SSW12.9 kmh SSW 10.1 mph16.3 kmh 29.87 in1011.5 mb 0.00 in0.0 mm 0.00 in0.0 mm 0.00 in0.0 mm
01:25 AM 63.8°F17.7°C 57.8°F14.3°C 81% 9.4 mph SSW15.1 kmh SSW 17.3 mph27.8 kmh 29.87 in1011.5 mb 0.00 in0.0 mm 0.00 in0.0 mm 0.00 in0.0 mm
01:30 AM 63.8°F17.7°C 57.8°F14.3°C 81% 10.4 mph SSW16.7 kmh SSW 17.3 mph27.8 kmh 29.87 in1011.5 mb 0.00 in0.0 mm 0.00 in0.0 mm 0.00 in0.0 mm
01:35 AM 63.8°F17.7°C 57.8°F14.3°C 81% 10.2 mph SSW16.4 kmh SSW 17.3 mph27.8 kmh 29.87 in1011.5 mb 0.00 in0.0 mm 0.00 in0.0 mm 0.00 in0.0 mm
01:40 AM 63.8°F17.7°C 57.8°F14.3°C 81% 10.3 mph SSW16.6 kmh SSW 14.6 mph23.5 kmh 29.87 in1011.5 mb 0.00 in0.0 mm 0.00 in0.0 mm 0.00 in0.0 mm
01:45 AM 63.6°F17.6°C 57.7°F14.3°C 81% 9.4 mph SSW15.1 kmh SSW 14.0 mph22.5 kmh 29.87 in1011.5 mb 0.00 in0.0 mm 0.00 in0.0 mm 0.00 in0.0 mm
01:50 AM 63.6°F17.6°C 57.7°F14.3°C 81% 7.7 mph SSW12.4 kmh SSW 10.7 mph17.2 kmh 29.87 in1011.5 mb 0.00 in0.0 mm 0.00 in0.0 mm 0.00 in0.0 mm
01:55 AM 63.6°F17.6°C 57.7°F14.3°C 81% 8.4 mph S13.5 kmh S 10.7 mph17.2 kmh 29.87 in1011.5 mb 0.00 in0.0 mm 0.00 in0.0 mm 0.00 in0.0 mm
02:00 AM 63.6°F17.6°C 57.7°F14.3°C 81% 8.4 mph S13.5 kmh S 12.2 mph19.6 kmh 29.87 in1011.5 mb 0.00 in0.0 mm 0.00 in0.0 mm 0.00 in0.0 mm
02:05 AM 63.6°F17.6°C 58.0°F14.4°C 82% 7.9 mph SSW12.7 kmh SSW 12.2 mph19.6 kmh 29.87 in1011.5 mb 0.00 in0.0 mm 0.00 in0.0 mm 0.00 in0.0 mm
02:10 AM 63.4°F17.4°C 57.8°F14.3°C 82% 7.6 mph SW12.2 kmh SW 12.2 mph19.6 kmh 29.84 in1010.5 mb 0.00 in0.0 mm 0.00 in0.0 mm 0.00 in0.0 mm
02:15 AM 63.2°F17.3°C 57.6°F14.2°C 82% 6.6 mph SW10.6 kmh SW 10.4 mph16.7 kmh 29.84 in1010.5 mb 0.00 in0.0 mm 0.00 in0.0 mm 0.00 in0.0 mm
02:20 AM 63.2°F17.3°C 57.6°F14.2°C 82% 7.3 mph SW11.7 kmh SW 10.4 mph16.7 kmh 29.84 in1010.5 mb 0.00 in0.0 mm 0.00 in0.0 mm 0.00 in0.0 mm
02:25 AM 63.0°F17.2°C 57.8°F14.3°C 83% 8.1 mph SW13.0 kmh SW 10.4 mph16.7 kmh 29.84 in1010.5 mb 0.00 in0.0 mm 0.00 in0.0 mm 0.00 in0.0 mm
02:30 AM 63.0°F17.2°C 57.8°F14.3°C 83% 6.6 mph SSW10.6 kmh SSW 9.8 mph15.8 kmh 29.84 in1010.5 mb 0.00 in0.0 mm 0.00 in0.0 mm 0.00 in0.0 mm
02:35 AM 63.0°F17.2°C 57.8°F14.3°C 83% 6.2 mph SSW10.0 kmh SSW 13.7 mph22.0 kmh 29.84 in1010.5 mb 0.00 in0.0 mm 0.00 in0.0 mm 0.00 in0.0 mm
02:40 AM 63.0°F17.2°C 57.8°F14.3°C 83% 6.7 mph SSW10.8 kmh SSW 13.7 mph22.0 kmh 29.84 in1010.5 mb 0.00 in0.0 mm 0.00 in0.0 mm 0.00 in0.0 mm
02:45 AM 62.9°F17.2°C 57.6°F14.2°C 83% 7.5 mph SSW12.1 kmh SSW 13.7 mph22.0 kmh 29.84 in1010.5 mb 0.00 in0.0 mm 0.00 in0.0 mm 0.00 in0.0 mm
02:50 AM 62.9°F17.2°C 57.6°F14.2°C 83% 9.0 mph SSW14.5 kmh SSW 13.7 mph22.0 kmh 29.84 in1010.5 mb 0.00 in0.0 mm 0.00 in0.0 mm 0.00 in0.0 mm
02:55 AM 62.9°F17.2°C 58.0°F14.4°C 84% 9.1 mph SSW14.6 kmh SSW 11.6 mph18.7 kmh 29.84 in1010.5 mb 0.00 in0.0 mm 0.00 in0.0 mm 0.00 in0.0 mm
03:00 AM 62.9°F17.2°C 58.0°F14.4°C 84% 7.7 mph SSW12.4 kmh SSW 10.4 mph16.7 kmh 29.84 in1010.5 mb 0.00 in0.0 mm 0.00 in0.0 mm 0.00 in0.0 mm
03:05 AM 62.9°F17.2°C 58.0°F14.4°C 84% 7.1 mph SSW11.4 kmh SSW 13.1 mph21.1 kmh 29.84 in1010.5 mb 0.00 in0.0 mm 0.00 in0.0 mm 0.00 in0.0 mm
03:10 AM 62.9°F17.2°C 58.0°F14.4°C 84% 7.4 mph SSW11.9 kmh SSW 13.1 mph21.1 kmh 29.84 in1010.5 mb 0.00 in0.0 mm 0.00 in0.0 mm 0.00 in0.0 mm
03:15 AM 62.9°F17.2°C 58.0°F14.4°C 84% 6.4 mph SW10.3 kmh SW 12.2 mph19.6 kmh 29.84 in1010.5 mb 0.00 in0.0 mm 0.00 in0.0 mm 0.00 in0.0 mm
03:20 AM 62.9°F17.2°C 58.0°F14.4°C 84% 5.9 mph SW9.5 kmh SW 8.6 mph13.8 kmh 29.84 in1010.5 mb 0.00 in0.0 mm 0.00 in0.0 mm 0.00 in0.0 mm
03:25 AM 62.9°F17.2°C 58.3°F14.6°C 85% 7.0 mph SSW11.3 kmh SSW 10.4 mph16.7 kmh 29.84 in1010.5 mb 0.00 in0.0 mm 0.00 in0.0 mm 0.00 in0.0 mm
03:30 AM 62.7°F17.1°C 58.1°F14.5°C 85% 7.3 mph SSW11.7 kmh SSW 10.4 mph16.7 kmh 29.84 in1010.5 mb 0.00 in0.0 mm 0.00 in0.0 mm 0.00 in0.0 mm
03:35 AM 62.5°F16.9°C 58.3°F14.6°C 86% 8.4 mph SW13.5 kmh SW 13.7 mph22.0 kmh 29.84 in1010.5 mb 0.00 in0.0 mm 0.00 in0.0 mm 0.00 in0.0 mm
03:40 AM 62.5°F16.9°C 58.3°F14.6°C 86% 8.6 mph SW13.8 kmh SW 13.7 mph22.0 kmh 29.84 in1010.5 mb 0.00 in0.0 mm 0.00 in0.0 mm 0.00 in0.0 mm
03:45 AM 62.3°F16.8°C 58.1°F14.5°C 86% 7.2 mph SW11.6 kmh SW 12.8 mph20.6 kmh 29.84 in1010.5 mb 0.00 in0.0 mm 0.00 in0.0 mm 0.00 in0.0 mm
03:50 AM 62.3°F16.8°C 58.4°F14.7°C 87% 6.7 mph SW10.8 kmh SW 12.8 mph20.6 kmh 29.84 in1010.5 mb 0.00 in0.0 mm 0.00 in0.0 mm 0.00 in0.0 mm
03:55 AM 62.3°F16.8°C 58.4°F14.7°C 87% 6.2 mph SW10.0 kmh SW 11.6 mph18.7 kmh 29.84 in1010.5 mb 0.00 in0.0 mm 0.00 in0.0 mm 0.00 in0.0 mm
04:00 AM 62.2°F16.8°C 58.2°F14.6°C 87% 5.4 mph WSW8.7 kmh WSW 9.8 mph15.8 kmh 29.84 in1010.5 mb 0.00 in0.0 mm 0.00 in0.0 mm 0.00 in0.0 mm
04:05 AM 62.2°F16.8°C 58.2°F14.6°C 87% 8.0 mph W12.9 kmh W 14.6 mph23.5 kmh 29.84 in1010.5 mb 0.04 in1.0 mm 0.48 in12.2 mm 0.04 in1.0 mm
04:10 AM 61.6°F16.4°C 57.7°F14.3°C 87% 12.0 mph W19.3 kmh W 14.6 mph23.5 kmh 29.84 in1010.5 mb 0.09 in2.3 mm 0.60 in15.2 mm 0.09 in2.3 mm
04:15 AM 61.3°F16.3°C 57.7°F14.3°C 88% 12.5 mph WSW20.1 kmh WSW 20.2 mph32.5 kmh 29.84 in1010.5 mb 0.17 in4.3 mm 0.96 in24.4 mm 0.17 in4.3 mm
04:20 AM 60.7°F15.9°C 56.8°F13.8°C 87% 13.4 mph WSW21.6 kmh WSW 20.2 mph32.5 kmh 29.84 in1010.5 mb 0.17 in4.3 mm 0.00 in0.0 mm 0.17 in4.3 mm
04:25 AM 60.3°F15.7°C 56.8°F13.8°C 88% 14.2 mph W22.9 kmh W 20.2 mph32.5 kmh 29.84 in1010.5 mb 0.17 in4.3 mm 0.00 in0.0 mm 0.17 in4.3 mm
04:30 AM 60.2°F15.7°C 56.6°F13.7°C 88% 11.0 mph WSW17.7 kmh WSW 16.1 mph25.9 kmh 29.84 in1010.5 mb 0.17 in4.3 mm 0.00 in0.0 mm 0.17 in4.3 mm
04:35 AM 60.3°F15.7°C 56.8°F13.8°C 88% 9.8 mph W15.8 kmh W 15.0 mph24.1 kmh 29.84 in1010.5 mb 0.17 in4.3 mm 0.00 in0.0 mm 0.17 in4.3 mm
04:40 AM 60.5°F15.8°C 57.3°F14.1°C 89% 10.7 mph WSW17.2 kmh WSW 14.0 mph22.5 kmh 29.84 in1010.5 mb 0.17 in4.3 mm 0.00 in0.0 mm 0.17 in4.3 mm
04:45 AM 60.7°F15.9°C 57.4°F14.1°C 89% 12.9 mph WSW20.8 kmh WSW 16.4 mph26.4 kmh 29.84 in1010.5 mb 0.17 in4.3 mm 0.00 in0.0 mm 0.17 in4.3 mm
04:50 AM 60.7°F15.9°C 57.1°F13.9°C 88% 11.8 mph W19.0 kmh W 16.4 mph26.4 kmh 29.84 in1010.5 mb 0.17 in4.3 mm 0.00 in0.0 mm 0.17 in4.3 mm
04:55 AM 60.7°F15.9°C 57.1°F13.9°C 88% 10.3 mph WSW16.6 kmh WSW 13.1 mph21.1 kmh 29.84 in1010.5 mb 0.17 in4.3 mm 0.00 in0.0 mm 0.17 in4.3 mm
05:00 AM 60.7°F15.9°C 57.4°F14.1°C 89% 9.6 mph W15.4 kmh W 11.6 mph18.7 kmh 29.84 in1010.5 mb 0.17 in4.3 mm 0.00 in0.0 mm 0.17 in4.3 mm
05:05 AM 60.7°F15.9°C 57.4°F14.1°C 89% 10.2 mph WNW16.4 kmh WNW 20.8 mph33.5 kmh 29.84 in1010.5 mb 0.12 in3.0 mm 0.00 in0.0 mm 0.21 in5.3 mm
05:10 AM 60.7°F15.9°C 57.4°F14.1°C 89% 9.4 mph WNW15.1 kmh WNW 20.8 mph33.5 kmh 29.84 in1010.5 mb 0.12 in3.0 mm 0.00 in0.0 mm 0.21 in5.3 mm
05:15 AM 60.9°F16.1°C 57.6°F14.2°C 89% 7.4 mph WNW11.9 kmh WNW 10.1 mph16.3 kmh 29.84 in1010.5 mb 0.04 in1.0 mm 0.00 in0.0 mm 0.21 in5.3 mm
05:20 AM 60.7°F15.9°C 57.4°F14.1°C 89% 8.7 mph W14.0 kmh W 13.7 mph22.0 kmh 29.84 in1010.5 mb 0.04 in1.0 mm 0.00 in0.0 mm 0.21 in5.3 mm
05:25 AM 60.5°F15.8°C 57.3°F14.1°C 89% 7.5 mph W12.1 kmh W 13.7 mph22.0 kmh 29.84 in1010.5 mb 0.08 in2.0 mm 0.48 in12.2 mm 0.25 in6.4 mm
05:30 AM 60.5°F15.8°C 57.3°F14.1°C 89% 7.8 mph W12.6 kmh W 13.4 mph21.6 kmh 29.84 in1010.5 mb 0.08 in2.0 mm 0.00 in0.0 mm 0.25 in6.4 mm
05:35 AM 60.5°F15.8°C 57.6°F14.2°C 90% 8.9 mph W14.3 kmh W 13.4 mph21.6 kmh 29.84 in1010.5 mb 0.08 in2.0 mm 0.00 in0.0 mm 0.25 in6.4 mm
05:40 AM 60.5°F15.8°C 57.6°F14.2°C 90% 10.7 mph W17.2 kmh W 17.0 mph27.4 kmh 29.84 in1010.5 mb 0.08 in2.0 mm 0.00 in0.0 mm 0.25 in6.4 mm
05:45 AM 60.3°F15.7°C 57.4°F14.1°C 90% 10.9 mph W17.5 kmh W 17.0 mph27.4 kmh 29.84 in1010.5 mb 0.08 in2.0 mm 0.00 in0.0 mm 0.25 in6.4 mm
05:50 AM 60.2°F15.7°C 57.2°F14.0°C 90% 9.0 mph W14.5 kmh W 14.6 mph23.5 kmh 29.84 in1010.5 mb 0.12 in3.0 mm 0.48 in12.2 mm 0.29 in7.4 mm
05:55 AM 60.2°F15.7°C 57.2°F14.0°C 90% 8.4 mph W13.5 kmh W 14.3 mph23.0 kmh 29.84 in1010.5 mb 0.12 in3.0 mm 0.00 in0.0 mm 0.29 in7.4 mm
06:00 AM 60.0°F15.6°C 57.0°F13.9°C 90% 10.2 mph WNW16.4 kmh WNW 14.3 mph23.0 kmh 29.84 in1010.5 mb 0.12 in3.0 mm 0.00 in0.0 mm 0.29 in7.4 mm
06:05 AM 59.3°F15.2°C 56.3°F13.5°C 90% 11.3 mph WNW18.2 kmh WNW 17.3 mph27.8 kmh 29.84 in1010.5 mb 0.12 in3.0 mm 0.00 in0.0 mm 0.33 in8.4 mm
06:10 AM 59.1°F15.1°C 55.9°F13.3°C 89% 9.1 mph NW14.6 kmh NW 17.3 mph27.8 kmh 29.84 in1010.5 mb 0.12 in3.0 mm 0.00 in0.0 mm 0.33 in8.4 mm
06:15 AM 58.9°F14.9°C 55.7°F13.2°C 89% 7.0 mph NW11.3 kmh NW 11.6 mph18.7 kmh 29.84 in1010.5 mb 0.12 in3.0 mm 0.00 in0.0 mm 0.33 in8.4 mm
06:20 AM 58.5°F14.7°C 55.3°F12.9°C 89% 5.0 mph WNW8.0 kmh WNW 8.3 mph13.4 kmh 29.87 in1011.5 mb 0.12 in3.0 mm 0.00 in0.0 mm 0.33 in8.4 mm
06:25 AM 58.4°F14.7°C 55.1°F12.8°C 89% 4.1 mph WNW6.6 kmh WNW 5.7 mph9.2 kmh 29.87 in1011.5 mb 0.08 in2.0 mm 0.00 in0.0 mm 0.33 in8.4 mm
06:30 AM 58.2°F14.6°C 55.3°F12.9°C 90% 4.2 mph NW6.8 kmh NW 5.7 mph9.2 kmh 29.87 in1011.5 mb 0.08 in2.0 mm 0.00 in0.0 mm 0.33 in8.4 mm
06:35 AM 58.2°F14.6°C 55.3°F12.9°C 90% 3.7 mph WNW6.0 kmh WNW 5.7 mph9.2 kmh 29.87 in1011.5 mb 0.13 in3.3 mm 0.60 in15.2 mm 0.38 in9.7 mm
06:40 AM 58.2°F14.6°C 55.3°F12.9°C 90% 3.7 mph W6.0 kmh W 5.4 mph8.7 kmh 29.87 in1011.5 mb 0.13 in3.3 mm 0.00 in0.0 mm 0.38 in9.7 mm
06:45 AM 58.2°F14.6°C 55.3°F12.9°C 90% 3.9 mph WNW6.3 kmh WNW 5.4 mph8.7 kmh 29.87 in1011.5 mb 0.17 in4.3 mm 0.48 in12.2 mm 0.42 in10.7 mm
06:50 AM 58.2°F14.6°C 55.6°F13.1°C 91% 3.6 mph WNW5.8 kmh WNW 7.4 mph11.9 kmh 29.87 in1011.5 mb 0.13 in3.3 mm 0.00 in0.0 mm 0.42 in10.7 mm
06:55 AM 58.2°F14.6°C 55.6°F13.1°C 91% 3.2 mph WNW5.1 kmh WNW 7.4 mph11.9 kmh 29.87 in1011.5 mb 0.13 in3.3 mm 0.00 in0.0 mm 0.42 in10.7 mm
07:00 AM 58.4°F14.7°C 55.8°F13.2°C 91% 3.6 mph WNW5.8 kmh WNW 11.6 mph18.7 kmh 29.87 in1011.5 mb 0.13 in3.3 mm 0.00 in0.0 mm 0.42 in10.7 mm
07:05 AM 57.8°F14.3°C 54.9°F12.7°C 90% 4.8 mph WNW7.7 kmh WNW 11.6 mph18.7 kmh 29.87 in1011.5 mb 0.13 in3.3 mm 0.00 in0.0 mm 0.46 in11.7 mm
07:10 AM 57.7°F14.3°C 54.7°F12.6°C 90% 5.7 mph W9.2 kmh W 9.8 mph15.8 kmh 29.87 in1011.5 mb 0.13 in3.3 mm 0.00 in0.0 mm 0.46 in11.7 mm
07:15 AM 57.5°F14.2°C 54.6°F12.6°C 90% 5.8 mph WSW9.3 kmh WSW 10.4 mph16.7 kmh 29.87 in1011.5 mb 0.13 in3.3 mm 0.00 in0.0 mm 0.46 in11.7 mm
07:20 AM 57.5°F14.2°C 54.6°F12.6°C 90% 5.4 mph WSW8.7 kmh WSW 10.4 mph16.7 kmh 29.87 in1011.5 mb 0.13 in3.3 mm 0.00 in0.0 mm 0.46 in11.7 mm
07:25 AM 57.3°F14.1°C 54.4°F12.4°C 90% 4.6 mph WSW7.4 kmh WSW 10.4 mph16.7 kmh 29.87 in1011.5 mb 0.13 in3.3 mm 0.00 in0.0 mm 0.46 in11.7 mm
07:30 AM 57.3°F14.1°C 54.4°F12.4°C 90% 2.4 mph WSW3.9 kmh WSW 5.1 mph8.2 kmh 29.87 in1011.5 mb 0.13 in3.3 mm 0.00 in0.0 mm 0.46 in11.7 mm
07:35 AM 57.3°F14.1°C 54.4°F12.4°C 90% 2.8 mph SW4.5 kmh SW 6.5 mph10.5 kmh 29.87 in1011.5 mb 0.08 in2.0 mm 0.00 in0.0 mm 0.46 in11.7 mm
07:40 AM 57.5°F14.2°C 54.9°F12.7°C 91% 3.6 mph WSW5.8 kmh WSW 6.5 mph10.5 kmh 29.87 in1011.5 mb 0.08 in2.0 mm 0.00 in0.0 mm 0.46 in11.7 mm
07:45 AM 57.5°F14.2°C 54.9°F12.7°C 91% 2.9 mph WSW4.7 kmh WSW 5.1 mph8.2 kmh 29.87 in1011.5 mb 0.04 in1.0 mm 0.00 in0.0 mm 0.46 in11.7 mm
07:50 AM 57.7°F14.3°C 55.0°F12.8°C 91% 2.3 mph W3.7 kmh W 4.8 mph7.7 kmh 29.87 in1011.5 mb 0.04 in1.0 mm 0.00 in0.0 mm 0.46 in11.7 mm
07:55 AM 57.7°F14.3°C 55.0°F12.8°C 91% 4.1 mph WNW6.6 kmh WNW 8.0 mph12.9 kmh 29.87 in1011.5 mb 0.04 in1.0 mm 0.00 in0.0 mm 0.46 in11.7 mm
08:00 AM 57.8°F14.3°C 54.6°F12.6°C 89% 9.0 mph WNW14.5 kmh WNW 15.2 mph24.5 kmh 29.87 in1011.5 mb 0.04 in1.0 mm 0.00 in0.0 mm 0.46 in11.7 mm
08:05 AM 58.0°F14.4°C 54.8°F12.7°C 89% 9.3 mph NW15.0 kmh NW 15.2 mph24.5 kmh 29.87 in1011.5 mb 0.00 in0.0 mm 0.00 in0.0 mm 0.46 in11.7 mm
08:10 AM 58.0°F14.4°C 54.8°F12.7°C 89% 7.6 mph NW12.2 kmh NW 13.1 mph21.1 kmh 29.87 in1011.5 mb 0.00 in0.0 mm 0.00 in0.0 mm 0.46 in11.7 mm
08:15 AM 58.0°F14.4°C 54.5°F12.5°C 88% 8.6 mph NW13.8 kmh NW 14.3 mph23.0 kmh 29.87 in1011.5 mb 0.00 in0.0 mm 0.00 in0.0 mm 0.46 in11.7 mm
08:20 AM 58.0°F14.4°C 54.2°F12.3°C 87% 8.5 mph WNW13.7 kmh WNW 14.3 mph23.0 kmh 29.90 in1012.5 mb 0.00 in0.0 mm 0.00 in0.0 mm 0.46 in11.7 mm
08:25 AM 58.0°F14.4°C 54.2°F12.3°C 87% 6.8 mph NW10.9 kmh NW 9.8 mph15.8 kmh 29.90 in1012.5 mb 0.00 in0.0 mm 0.00 in0.0 mm 0.46 in11.7 mm
08:30 AM 58.0°F14.4°C 54.2°F12.3°C 87% 6.3 mph NW10.1 kmh NW 11.6 mph18.7 kmh 29.90 in1012.5 mb 0.00 in0.0 mm 0.00 in0.0 mm 0.46 in11.7 mm
08:35 AM 58.0°F14.4°C 53.8°F12.1°C 86% 6.5 mph WNW10.5 kmh WNW 11.6 mph18.7 kmh 29.90 in1012.5 mb 0.00 in0.0 mm 0.00 in0.0 mm 0.46 in11.7 mm
08:40 AM 58.0°F14.4°C 53.8°F12.1°C 86% 5.6 mph WNW9.0 kmh WNW 8.3 mph13.4 kmh 29.90 in1012.5 mb 0.00 in0.0 mm 0.00 in0.0 mm 0.46 in11.7 mm
08:45 AM 58.2°F14.6°C 54.0°F12.2°C 86% 5.2 mph NW8.4 kmh NW 7.1 mph11.4 kmh 29.90 in1012.5 mb 0.00 in0.0 mm 0.00 in0.0 mm 0.46 in11.7 mm
08:50 AM 58.2°F14.6°C 54.0°F12.2°C 86% 4.6 mph NW7.4 kmh NW 7.1 mph11.4 kmh 29.87 in1011.5 mb 0.00 in0.0 mm 0.00 in0.0 mm 0.46 in11.7 mm
08:55 AM 58.5°F14.7°C 54.4°F12.4°C 86% 3.9 mph WNW6.3 kmh WNW 5.4 mph8.7 kmh 29.87 in1011.5 mb 0.00 in0.0 mm 0.00 in0.0 mm 0.46 in11.7 mm
09:00 AM 58.5°F14.7°C 54.4°F12.4°C 86% 4.8 mph WNW7.7 kmh WNW 8.3 mph13.4 kmh 29.87 in1011.5 mb 0.00 in0.0 mm 0.00 in0.0 mm 0.46 in11.7 mm
09:05 AM 58.7°F14.8°C 54.2°F12.3°C 85% 5.2 mph W8.4 kmh W 8.3 mph13.4 kmh 29.87 in1011.5 mb 0.00 in0.0 mm 0.00 in0.0 mm 0.46 in11.7 mm
09:10 AM 59.1°F15.1°C 54.3°F12.4°C 84% 4.9 mph W7.9 kmh W 7.7 mph12.4 kmh 29.87 in1011.5 mb 0.00 in0.0 mm 0.00 in0.0 mm 0.46 in11.7 mm
09:15 AM 59.5°F15.3°C 54.6°F12.6°C 84% 5.8 mph WNW9.3 kmh WNW 7.7 mph12.4 kmh 29.87 in1011.5 mb 0.00 in0.0 mm 0.00 in0.0 mm 0.46 in11.7 mm
09:20 AM 59.6°F15.3°C 54.1°F12.3°C 82% 6.4 mph NW10.3 kmh NW 7.7 mph12.4 kmh 29.90 in1012.5 mb 0.00 in0.0 mm 0.00 in0.0 mm 0.46 in11.7 mm
09:25 AM 59.8°F15.4°C 54.3°F12.4°C 82% 5.9 mph WNW9.5 kmh WNW 8.3 mph13.4 kmh 29.90 in1012.5 mb 0.00 in0.0 mm 0.00 in0.0 mm 0.46 in11.7 mm
09:30 AM 60.0°F15.6°C 54.5°F12.5°C 82% 5.5 mph WNW8.9 kmh WNW 8.3 mph13.4 kmh 29.90 in1012.5 mb 0.00 in0.0 mm 0.00 in0.0 mm 0.46 in11.7 mm
09:35 AM 60.5°F15.8°C 55.0°F12.8°C 82% 4.9 mph NW7.9 kmh NW 7.1 mph11.4 kmh 29.90 in1012.5 mb 0.00 in0.0 mm 0.00 in0.0 mm 0.46 in11.7 mm
09:40 AM 60.7°F15.9°C 55.2°F12.9°C 82% 5.5 mph WNW8.9 kmh WNW 8.6 mph13.8 kmh 29.90 in1012.5 mb 0.00 in0.0 mm 0.00 in0.0 mm 0.46 in11.7 mm
09:45 AM 61.1°F16.2°C 55.2°F12.9°C 81% 5.3 mph WNW8.5 kmh WNW 8.6 mph13.8 kmh 29.90 in1012.5 mb 0.00 in0.0 mm 0.00 in0.0 mm 0.46 in11.7 mm
09:50 AM 61.3°F16.3°C 55.0°F12.8°C 80% 3.9 mph NW6.3 kmh NW 6.2 mph10.0 kmh 29.90 in1012.5 mb 0.00 in0.0 mm 0.00 in0.0 mm 0.46 in11.7 mm
09:55 AM 61.6°F16.4°C 55.4°F13.0°C 80% 3.9 mph W6.3 kmh W 6.2 mph10.0 kmh 29.90 in1012.5 mb 0.00 in0.0 mm 0.00 in0.0 mm 0.46 in11.7 mm
10:00 AM 61.8°F16.6°C 55.2°F12.9°C 79% 6.8 mph W10.9 kmh W 11.6 mph18.7 kmh 29.90 in1012.5 mb 0.00 in0.0 mm 0.00 in0.0 mm 0.46 in11.7 mm
10:05 AM 62.0°F16.7°C 55.0°F12.8°C 78% 9.7 mph WNW15.6 kmh WNW 13.4 mph21.6 kmh 29.90 in1012.5 mb 0.00 in0.0 mm 0.00 in0.0 mm 0.46 in11.7 mm
10:10 AM 62.7°F17.1°C 55.4°F13.0°C 77% 11.3 mph W18.2 kmh W 19.6 mph31.5 kmh 29.90 in1012.5 mb 0.00 in0.0 mm 0.00 in0.0 mm 0.46 in11.7 mm
10:15 AM 63.2°F17.3°C 55.5°F13.1°C 76% 11.0 mph W17.7 kmh W 19.6 mph31.5 kmh 29.90 in1012.5 mb 0.00 in0.0 mm 0.00 in0.0 mm 0.46 in11.7 mm
10:20 AM 63.6°F17.6°C 55.9°F13.3°C 76% 9.4 mph W15.1 kmh W 17.3 mph27.8 kmh 29.90 in1012.5 mb 0.00 in0.0 mm 0.00 in0.0 mm 0.46 in11.7 mm
10:25 AM 63.8°F17.7°C 55.3°F12.9°C 74% 9.6 mph W15.4 kmh W 13.7 mph22.0 kmh 29.90 in1012.5 mb 0.00 in0.0 mm 0.00 in0.0 mm 0.46 in11.7 mm
10:30 AM 64.0°F17.8°C 55.1°F12.8°C 73% 10.4 mph W16.7 kmh W 17.3 mph27.8 kmh 29.90 in1012.5 mb 0.00 in0.0 mm 0.00 in0.0 mm 0.46 in11.7 mm
10:35 AM 64.5°F18.1°C 55.3°F12.9°C 72% 10.4 mph W16.7 kmh W 17.3 mph27.8 kmh 29.90 in1012.5 mb 0.00 in0.0 mm 0.00 in0.0 mm 0.46 in11.7 mm
10:40 AM 64.7°F18.2°C 55.4°F13.0°C 72% 11.5 mph W18.5 kmh W 16.7 mph26.9 kmh 29.90 in1012.5 mb 0.00 in0.0 mm 0.00 in0.0 mm 0.46 in11.7 mm
10:45 AM 64.8°F18.2°C 55.2°F12.9°C 71% 12.9 mph WNW20.8 kmh WNW 17.9 mph28.8 kmh 29.90 in1012.5 mb 0.00 in0.0 mm 0.00 in0.0 mm 0.46 in11.7 mm
10:50 AM 64.8°F18.2°C 54.4°F12.4°C 69% 14.3 mph W23.0 kmh W 21.4 mph34.4 kmh 29.90 in1012.5 mb 0.00 in0.0 mm 0.00 in0.0 mm 0.46 in11.7 mm
10:55 AM 65.0°F18.3°C 54.6°F12.6°C 69% 14.1 mph WSW22.7 kmh WSW 21.4 mph34.4 kmh 29.90 in1012.5 mb 0.00 in0.0 mm 0.00 in0.0 mm 0.46 in11.7 mm
11:00 AM 65.6°F18.7°C 54.7°F12.6°C 68% 11.8 mph W19.0 kmh W 17.0 mph27.4 kmh 29.90 in1012.5 mb 0.00 in0.0 mm 0.00 in0.0 mm 0.46 in11.7 mm
11:05 AM 65.6°F18.7°C 54.3°F12.4°C 67% 11.0 mph W17.7 kmh W 14.3 mph23.0 kmh 29.90 in1012.5 mb 0.00 in0.0 mm 0.00 in0.0 mm 0.46 in11.7 mm
11:10 AM 65.6°F18.7°C 54.3°F12.4°C 67% 12.4 mph WNW20.0 kmh WNW 19.6 mph31.5 kmh 29.90 in1012.5 mb 0.00 in0.0 mm 0.00 in0.0 mm 0.46 in11.7 mm
11:15 AM 65.6°F18.7°C 53.5°F11.9°C 65% 15.5 mph WNW24.9 kmh WNW 22.0 mph35.4 kmh 29.90 in1012.5 mb 0.00 in0.0 mm 0.00 in0.0 mm 0.46 in11.7 mm
11:20 AM 65.6°F18.7°C 53.5°F11.9°C 65% 14.4 mph WNW23.2 kmh WNW 22.0 mph35.4 kmh 29.90 in1012.5 mb 0.00 in0.0 mm 0.00 in0.0 mm 0.46 in11.7 mm
11:25 AM 65.8°F18.8°C 53.7°F12.1°C 65% 11.8 mph NW19.0 kmh NW 17.0 mph27.4 kmh 29.90 in1012.5 mb 0.00 in0.0 mm 0.00 in0.0 mm 0.46 in11.7 mm
11:30 AM 65.9°F18.8°C 53.4°F11.9°C 64% 12.3 mph NW19.8 kmh NW 16.7 mph26.9 kmh 29.90 in1012.5 mb 0.00 in0.0 mm 0.00 in0.0 mm 0.46 in11.7 mm
11:35 AM 66.1°F18.9°C 53.6°F12.0°C 64% 13.3 mph W21.4 kmh W 16.4 mph26.4 kmh 29.90 in1012.5 mb 0.00 in0.0 mm 0.00 in0.0 mm 0.46 in11.7 mm
11:40 AM 66.1°F18.9°C 53.6°F12.0°C 64% 13.6 mph W21.9 kmh W 17.9 mph28.8 kmh 29.90 in1012.5 mb 0.00 in0.0 mm 0.00 in0.0 mm 0.46 in11.7 mm
11:45 AM 66.5°F19.2°C 53.5°F11.9°C 63% 11.6 mph WNW18.7 kmh WNW 17.9 mph28.8 kmh 29.90 in1012.5 mb 0.00 in0.0 mm 0.00 in0.0 mm 0.46 in11.7 mm
11:50 AM 66.7°F19.3°C 53.7°F12.1°C 63% 11.3 mph WNW18.2 kmh WNW 16.1 mph25.9 kmh 29.90 in1012.5 mb 0.00 in0.0 mm 0.00 in0.0 mm 0.46 in11.7 mm
11:55 AM 66.8°F19.3°C 53.4°F11.9°C 62% 12.9 mph WNW20.8 kmh WNW 19.6 mph31.5 kmh 29.90 in1012.5 mb 0.00 in0.0 mm 0.00 in0.0 mm 0.46 in11.7 mm
12:00 PM 67.0°F19.4°C 53.6°F12.0°C 62% 12.9 mph WNW20.8 kmh WNW 19.6 mph31.5 kmh 29.90 in1012.5 mb 0.00 in0.0 mm 0.00 in0.0 mm 0.46 in11.7 mm
12:05 PM 67.0°F19.4°C 53.1°F11.7°C 61% 13.3 mph W21.4 kmh W 18.4 mph29.6 kmh 29.90 in1012.5 mb 0.00 in0.0 mm 0.00 in0.0 mm 0.46 in11.7 mm
12:10 PM 67.0°F19.4°C 53.1°F11.7°C 61% 13.1 mph W21.1 kmh W 18.4 mph29.6 kmh 29.90 in1012.5 mb 0.00 in0.0 mm 0.00 in0.0 mm 0.46 in11.7 mm
12:15 PM 67.2°F19.6°C 53.3°F11.8°C 61% 10.6 mph WSW17.1 kmh WSW 17.9 mph28.8 kmh 29.90 in1012.5 mb 0.00 in0.0 mm 0.00 in0.0 mm 0.46 in11.7 mm
12:20 PM 66.8°F19.3°C 52.9°F11.6°C 61% 11.1 mph WSW17.9 kmh WSW 17.6 mph28.3 kmh 29.90 in1012.5 mb 0.00 in0.0 mm 0.00 in0.0 mm 0.46 in11.7 mm
12:25 PM 67.2°F19.6°C 53.3°F11.8°C 61% 11.8 mph W19.0 kmh W 17.6 mph28.3 kmh 29.90 in1012.5 mb 0.00 in0.0 mm 0.00 in0.0 mm 0.46 in11.7 mm
12:30 PM 67.2°F19.6°C 52.8°F11.6°C 60% 13.5 mph WNW21.7 kmh WNW 20.5 mph33.0 kmh 29.90 in1012.5 mb 0.00 in0.0 mm 0.00 in0.0 mm 0.46 in11.7 mm
12:35 PM 67.2°F19.6°C 52.4°F11.3°C 59% 13.9 mph WNW22.4 kmh WNW 20.5 mph33.0 kmh 29.90 in1012.5 mb 0.00 in0.0 mm 0.00 in0.0 mm 0.46 in11.7 mm
12:40 PM 67.4°F19.7°C 52.1°F11.2°C 58% 11.4 mph W18.3 kmh W 14.9 mph24.0 kmh 29.90 in1012.5 mb 0.00 in0.0 mm 0.00 in0.0 mm 0.46 in11.7 mm
12:45 PM 67.4°F19.7°C 52.1°F11.2°C 58% 12.9 mph WSW20.8 kmh WSW 19.6 mph31.5 kmh 29.90 in1012.5 mb 0.00 in0.0 mm 0.00 in0.0 mm 0.46 in11.7 mm
12:50 PM 67.2°F19.6°C 51.9°F11.1°C 58% 12.8 mph W20.6 kmh W 19.6 mph31.5 kmh 29.90 in1012.5 mb 0.00 in0.0 mm 0.00 in0.0 mm 0.46 in11.7 mm
12:55 PM 67.4°F19.7°C 52.1°F11.2°C 58% 12.1 mph WNW19.5 kmh WNW 19.6 mph31.5 kmh 29.90 in1012.5 mb 0.00 in0.0 mm 0.00 in0.0 mm 0.46 in11.7 mm
01:00 PM 67.6°F19.8°C 52.2°F11.2°C 58% 10.8 mph WNW17.4 kmh WNW 17.6 mph28.3 kmh 29.90 in1012.5 mb 0.00 in0.0 mm 0.00 in0.0 mm 0.46 in11.7 mm
01:05 PM 67.7°F19.8°C 51.9°F11.1°C 57% 12.2 mph W19.6 kmh W 23.2 mph37.3 kmh 29.90 in1012.5 mb 0.00 in0.0 mm 0.00 in0.0 mm 0.46 in11.7 mm
01:10 PM 67.9°F19.9°C 52.1°F11.2°C 57% 12.6 mph WNW20.3 kmh WNW 23.2 mph37.3 kmh 29.90 in1012.5 mb 0.00 in0.0 mm 0.00 in0.0 mm 0.46 in11.7 mm
01:15 PM 68.1°F20.1°C 52.3°F11.3°C 57% 13.3 mph W21.4 kmh W 23.2 mph37.3 kmh 29.90 in1012.5 mb 0.00 in0.0 mm 0.00 in0.0 mm 0.46 in11.7 mm
01:20 PM 68.3°F20.2°C 52.9°F11.6°C 58% 13.5 mph W21.7 kmh W 19.6 mph31.5 kmh 29.90 in1012.5 mb 0.00 in0.0 mm 0.00 in0.0 mm 0.46 in11.7 mm
01:25 PM 68.3°F20.2°C 52.4°F11.3°C 57% 13.6 mph WNW21.9 kmh WNW 20.2 mph32.5 kmh 29.90 in1012.5 mb 0.00 in0.0 mm 0.00 in0.0 mm 0.46 in11.7 mm
01:30 PM 68.1°F20.1°C 52.3°F11.3°C 57% 13.5 mph WNW21.7 kmh WNW 21.4 mph34.4 kmh 29.90 in1012.5 mb 0.00 in0.0 mm 0.00 in0.0 mm 0.46 in11.7 mm
01:35 PM 67.6°F19.8°C 51.8°F11.0°C 57% 13.3 mph W21.4 kmh W 21.4 mph34.4 kmh 29.90 in1012.5 mb 0.00 in0.0 mm 0.00 in0.0 mm 0.46 in11.7 mm
01:40 PM 67.4°F19.7°C 52.1°F11.2°C 58% 12.9 mph WSW20.8 kmh WSW 16.7 mph26.9 kmh 29.90 in1012.5 mb 0.00 in0.0 mm 0.00 in0.0 mm 0.46 in11.7 mm
01:45 PM 67.2°F19.6°C 51.9°F11.1°C 58% 14.1 mph W22.7 kmh W 17.6 mph28.3 kmh 29.90 in1012.5 mb 0.00 in0.0 mm 0.00 in0.0 mm 0.46 in11.7 mm
01:50 PM 67.4°F19.7°C 52.1°F11.2°C 58% 12.1 mph W19.5 kmh W 17.6 mph28.3 kmh 29.93 in1013.5 mb 0.00 in0.0 mm 0.00 in0.0 mm 0.46 in11.7 mm
01:55 PM 67.4°F19.7°C 52.1°F11.2°C 58% 10.7 mph W17.2 kmh W 19.6 mph31.5 kmh 29.93 in1013.5 mb 0.00 in0.0 mm 0.00 in0.0 mm 0.46 in11.7 mm
02:00 PM 67.6°F19.8°C 51.8°F11.0°C 57% 12.7 mph W20.4 kmh W 19.6 mph31.5 kmh 29.93 in1013.5 mb 0.00 in0.0 mm 0.00 in0.0 mm 0.46 in11.7 mm
02:05 PM 67.9°F19.9°C 52.6°F11.4°C 58% 12.0 mph WNW19.3 kmh WNW 17.9 mph28.8 kmh 29.93 in1013.5 mb 0.00 in0.0 mm 0.00 in0.0 mm 0.46 in11.7 mm
02:10 PM 68.1°F20.1°C 52.8°F11.6°C 58% 11.8 mph W19.0 kmh W 17.3 mph27.8 kmh 29.93 in1013.5 mb 0.00 in0.0 mm 0.00 in0.0 mm 0.46 in11.7 mm
02:15 PM 67.9°F19.9°C 52.1°F11.2°C 57% 12.5 mph W20.1 kmh W 18.4 mph29.6 kmh 29.93 in1013.5 mb 0.00 in0.0 mm 0.00 in0.0 mm 0.46 in11.7 mm
02:20 PM 67.9°F19.9°C 52.1°F11.2°C 57% 12.9 mph W20.8 kmh W 18.4 mph29.6 kmh 29.93 in1013.5 mb 0.00 in0.0 mm 0.00 in0.0 mm 0.46 in11.7 mm
02:25 PM 67.9°F19.9°C 52.1°F11.2°C 57% 10.5 mph W16.9 kmh W 15.8 mph25.4 kmh 29.93 in1013.5 mb 0.00 in0.0 mm 0.00 in0.0 mm 0.46 in11.7 mm
02:30 PM 67.7°F19.8°C 51.5°F10.8°C 56% 10.3 mph W16.6 kmh W 23.2 mph37.3 kmh 29.93 in1013.5 mb 0.00 in0.0 mm 0.00 in0.0 mm 0.46 in11.7 mm
02:35 PM 67.7°F19.8°C 51.5°F10.8°C 56% 12.7 mph W20.4 kmh W 23.2 mph37.3 kmh 29.93 in1013.5 mb 0.00 in0.0 mm 0.00 in0.0 mm 0.46 in11.7 mm
02:40 PM 67.7°F19.8°C 51.9°F11.1°C 57% 14.1 mph W22.7 kmh W 19.6 mph31.5 kmh 29.93 in1013.5 mb 0.00 in0.0 mm 0.00 in0.0 mm 0.46 in11.7 mm
02:45 PM 67.6°F19.8°C 52.2°F11.2°C 58% 13.8 mph W22.2 kmh W 19.0 mph30.6 kmh 29.93 in1013.5 mb 0.00 in0.0 mm 0.00 in0.0 mm 0.46 in11.7 mm
02:50 PM 67.9°F19.9°C 52.1°F11.2°C 57% 11.4 mph WNW18.3 kmh WNW 19.0 mph30.6 kmh 29.93 in1013.5 mb 0.00 in0.0 mm 0.00 in0.0 mm 0.46 in11.7 mm
02:55 PM 68.1°F20.1°C 52.3°F11.3°C 57% 11.1 mph W17.9 kmh W 19.0 mph30.6 kmh 29.93 in1013.5 mb 0.00 in0.0 mm 0.00 in0.0 mm 0.46 in11.7 mm
03:00 PM 67.9°F19.9°C 52.1°F11.2°C 57% 12.4 mph W20.0 kmh W 17.3 mph27.8 kmh 29.93 in1013.5 mb 0.00 in0.0 mm 0.00 in0.0 mm 0.46 in11.7 mm
03:05 PM 67.9°F19.9°C 52.1°F11.2°C 57% 11.3 mph W18.2 kmh W 17.0 mph27.4 kmh 29.93 in1013.5 mb 0.00 in0.0 mm 0.00 in0.0 mm 0.46 in11.7 mm
03:10 PM 67.7°F19.8°C 51.9°F11.1°C 57% 10.5 mph W16.9 kmh W 17.3 mph27.8 kmh 29.93 in1013.5 mb 0.00 in0.0 mm 0.00 in0.0 mm 0.46 in11.7 mm
03:15 PM 67.6°F19.8°C 52.2°F11.2°C 58% 11.9 mph W19.2 kmh W 17.3 mph27.8 kmh 29.93 in1013.5 mb 0.00 in0.0 mm 0.00 in0.0 mm 0.46 in11.7 mm
03:20 PM 67.7°F19.8°C 51.9°F11.1°C 57% 12.8 mph WSW20.6 kmh WSW 17.3 mph27.8 kmh 29.93 in1013.5 mb 0.00 in0.0 mm 0.00 in0.0 mm 0.46 in11.7 mm
03:25 PM 67.4°F19.7°C 51.6°F10.9°C 57% 12.6 mph W20.3 kmh W 16.7 mph26.9 kmh 29.93 in1013.5 mb 0.00 in0.0 mm 0.00 in0.0 mm 0.46 in11.7 mm
03:30 PM 67.4°F19.7°C 51.6°F10.9°C 57% 11.1 mph WSW17.9 kmh WSW 14.6 mph23.5 kmh 29.93 in1013.5 mb 0.00 in0.0 mm 0.00 in0.0 mm 0.46 in11.7 mm
03:35 PM 67.4°F19.7°C 51.6°F10.9°C 57% 10.3 mph WSW16.6 kmh WSW 13.4 mph21.6 kmh 29.93 in1013.5 mb 0.00 in0.0 mm 0.00 in0.0 mm 0.46 in11.7 mm
03:40 PM 67.2°F19.6°C 51.4°F10.8°C 57% 12.1 mph W19.5 kmh W 20.5 mph33.0 kmh 29.93 in1013.5 mb 0.00 in0.0 mm 0.00 in0.0 mm 0.46 in11.7 mm
03:45 PM 66.8°F19.3°C 51.1°F10.6°C 57% 13.0 mph W20.9 kmh W 20.5 mph33.0 kmh 29.93 in1013.5 mb 0.00 in0.0 mm 0.00 in0.0 mm 0.46 in11.7 mm
03:50 PM 67.2°F19.6°C 51.0°F10.6°C 56% 13.5 mph W21.7 kmh W 20.5 mph33.0 kmh 29.93 in1013.5 mb 0.00 in0.0 mm 0.00 in0.0 mm 0.46 in11.7 mm
03:55 PM 66.8°F19.3°C 50.1°F10.1°C 55% 15.8 mph W25.4 kmh W 22.9 mph36.9 kmh 29.93 in1013.5 mb 0.00 in0.0 mm 0.00 in0.0 mm 0.46 in11.7 mm
04:00 PM 67.0°F19.4°C 50.3°F10.2°C 55% 16.1 mph W25.9 kmh W 22.9 mph36.9 kmh 29.93 in1013.5 mb 0.00 in0.0 mm 0.00 in0.0 mm 0.46 in11.7 mm
04:05 PM 66.8°F19.3°C 50.1°F10.1°C 55% 14.5 mph WNW23.3 kmh WNW 22.9 mph36.9 kmh 29.93 in1013.5 mb 0.00 in0.0 mm 0.00 in0.0 mm 0.46 in11.7 mm
04:10 PM 67.0°F19.4°C 50.8°F10.4°C 56% 13.4 mph WNW21.6 kmh WNW 19.6 mph31.5 kmh 29.93 in1013.5 mb 0.00 in0.0 mm 0.00 in0.0 mm 0.46 in11.7 mm
04:15 PM 66.8°F19.3°C 50.6°F10.3°C 56% 12.1 mph W19.5 kmh W 17.3 mph27.8 kmh 29.93 in1013.5 mb 0.00 in0.0 mm 0.00 in0.0 mm 0.46 in11.7 mm
04:20 PM 66.8°F19.3°C 50.6°F10.3°C 56% 12.7 mph W20.4 kmh W 21.1 mph34.0 kmh 29.96 in1014.6 mb 0.00 in0.0 mm 0.00 in0.0 mm 0.46 in11.7 mm
04:25 PM 66.8°F19.3°C 50.6°F10.3°C 56% 13.5 mph W21.7 kmh W 21.1 mph34.0 kmh 29.96 in1014.6 mb 0.00 in0.0 mm 0.00 in0.0 mm 0.46 in11.7 mm
04:30 PM 66.7°F19.3°C 50.5°F10.3°C 56% 12.8 mph W20.6 kmh W 16.7 mph26.9 kmh 29.96 in1014.6 mb 0.00 in0.0 mm 0.00 in0.0 mm 0.46 in11.7 mm
04:35 PM 66.7°F19.3°C 50.5°F10.3°C 56% 11.6 mph W18.7 kmh W 18.4 mph29.6 kmh 29.96 in1014.6 mb 0.00 in0.0 mm 0.00 in0.0 mm 0.46 in11.7 mm
04:40 PM 66.5°F19.2°C 50.3°F10.2°C 56% 12.7 mph W20.4 kmh W 21.4 mph34.4 kmh 29.96 in1014.6 mb 0.00 in0.0 mm 0.00 in0.0 mm 0.46 in11.7 mm
04:45 PM 66.3°F19.1°C 50.1°F10.1°C 56% 14.0 mph W22.5 kmh W 21.4 mph34.4 kmh 29.96 in1014.6 mb 0.00 in0.0 mm 0.00 in0.0 mm 0.46 in11.7 mm
04:50 PM 66.3°F19.1°C 50.1°F10.1°C 56% 12.3 mph W19.8 kmh W 16.4 mph26.4 kmh 29.96 in1014.6 mb 0.00 in0.0 mm 0.00 in0.0 mm 0.46 in11.7 mm
04:55 PM 66.1°F18.9°C 50.0°F10.0°C 56% 12.4 mph W20.0 kmh W 17.0 mph27.4 kmh 29.96 in1014.6 mb 0.00 in0.0 mm 0.00 in0.0 mm 0.46 in11.7 mm
05:00 PM 66.1°F18.9°C 50.0°F10.0°C 56% 11.9 mph W19.2 kmh W 17.0 mph27.4 kmh 29.96 in1014.6 mb 0.00 in0.0 mm 0.00 in0.0 mm 0.46 in11.7 mm
05:05 PM 66.1°F18.9°C 50.0°F10.0°C 56% 9.5 mph W15.3 kmh W 14.3 mph23.0 kmh 29.96 in1014.6 mb 0.00 in0.0 mm 0.00 in0.0 mm 0.46 in11.7 mm
05:10 PM 66.1°F18.9°C 50.0°F10.0°C 56% 8.6 mph W13.8 kmh W 20.5 mph33.0 kmh 29.96 in1014.6 mb 0.00 in0.0 mm 0.00 in0.0 mm 0.46 in11.7 mm
05:15 PM 65.9°F18.8°C 49.8°F9.9°C 56% 11.1 mph WNW17.9 kmh WNW 20.5 mph33.0 kmh 29.96 in1014.6 mb 0.00 in0.0 mm 0.00 in0.0 mm 0.46 in11.7 mm
05:20 PM 65.9°F18.8°C 49.8°F9.9°C 56% 12.4 mph WNW20.0 kmh WNW 19.6 mph31.5 kmh 29.96 in1014.6 mb 0.00 in0.0 mm 0.00 in0.0 mm 0.46 in11.7 mm
05:25 PM 65.8°F18.8°C 49.6°F9.8°C 56% 11.4 mph W18.3 kmh W 18.7 mph30.1 kmh 29.96 in1014.6 mb 0.00 in0.0 mm 0.00 in0.0 mm 0.46 in11.7 mm
05:30 PM 65.8°F18.8°C 49.6°F9.8°C 56% 12.2 mph W19.6 kmh W 26.5 mph42.6 kmh 29.96 in1014.6 mb 0.00 in0.0 mm 0.00 in0.0 mm 0.46 in11.7 mm
05:35 PM 65.6°F18.7°C 49.4°F9.7°C 56% 13.2 mph W21.2 kmh W 26.5 mph42.6 kmh 29.96 in1014.6 mb 0.00 in0.0 mm 0.00 in0.0 mm 0.46 in11.7 mm
05:40 PM 65.4°F18.6°C 49.3°F9.6°C 56% 12.3 mph W19.8 kmh W 19.6 mph31.5 kmh 29.96 in1014.6 mb 0.00 in0.0 mm 0.00 in0.0 mm 0.46 in11.7 mm
05:45 PM 65.2°F18.4°C 49.1°F9.5°C 56% 11.6 mph WNW18.7 kmh WNW 19.6 mph31.5 kmh 29.96 in1014.6 mb 0.00 in0.0 mm 0.00 in0.0 mm 0.46 in11.7 mm
05:50 PM 65.0°F18.3°C 48.9°F9.4°C 56% 12.3 mph WNW19.8 kmh WNW 16.7 mph26.9 kmh 29.96 in1014.6 mb 0.00 in0.0 mm 0.00 in0.0 mm 0.46 in11.7 mm
05:55 PM 64.8°F18.2°C 48.8°F9.3°C 56% 11.8 mph WNW19.0 kmh WNW 14.6 mph23.5 kmh 29.96 in1014.6 mb 0.00 in0.0 mm 0.00 in0.0 mm 0.46 in11.7 mm
06:00 PM 64.8°F18.2°C 48.8°F9.3°C 56% 10.2 mph WSW16.4 kmh WSW 14.3 mph23.0 kmh 29.96 in1014.6 mb 0.00 in0.0 mm 0.00 in0.0 mm 0.46 in11.7 mm
06:05 PM 64.8°F18.2°C 49.3°F9.6°C 57% 10.5 mph WSW16.9 kmh WSW 16.1 mph25.9 kmh 29.96 in1014.6 mb 0.00 in0.0 mm 0.00 in0.0 mm 0.46 in11.7 mm
06:10 PM 64.7°F18.2°C 49.1°F9.5°C 57% 10.4 mph WNW16.7 kmh WNW 16.1 mph25.9 kmh 29.96 in1014.6 mb 0.00 in0.0 mm 0.00 in0.0 mm 0.46 in11.7 mm
06:15 PM 64.7°F18.2°C 49.1°F9.5°C 57% 8.9 mph NW14.3 kmh NW 13.4 mph21.6 kmh 29.96 in1014.6 mb 0.00 in0.0 mm 0.00 in0.0 mm 0.46 in11.7 mm
06:20 PM 64.5°F18.1°C 49.4°F9.7°C 58% 8.5 mph WNW13.7 kmh WNW 16.7 mph26.9 kmh 29.96 in1014.6 mb 0.00 in0.0 mm 0.00 in0.0 mm 0.46 in11.7 mm
06:25 PM 64.3°F17.9°C 49.2°F9.6°C 58% 10.1 mph WNW16.3 kmh WNW 16.7 mph26.9 kmh 29.96 in1014.6 mb 0.00 in0.0 mm 0.00 in0.0 mm 0.46 in11.7 mm
06:30 PM 63.6°F17.6°C 48.5°F9.2°C 58% 10.5 mph W16.9 kmh W 16.7 mph26.9 kmh 29.96 in1014.6 mb 0.00 in0.0 mm 0.00 in0.0 mm 0.46 in11.7 mm
06:35 PM 63.2°F17.3°C 48.2°F9.0°C 58% 8.7 mph W14.0 kmh W 11.6 mph18.7 kmh 29.96 in1014.6 mb 0.00 in0.0 mm 0.00 in0.0 mm 0.46 in11.7 mm
06:40 PM 62.9°F17.2°C 48.3°F9.1°C 59% 9.0 mph W14.5 kmh W 12.5 mph20.1 kmh 29.96 in1014.6 mb 0.00 in0.0 mm 0.00 in0.0 mm 0.46 in11.7 mm
06:45 PM 62.5°F16.9°C 48.0°F8.9°C 59% 10.1 mph W16.3 kmh W 17.0 mph27.4 kmh 29.96 in1014.6 mb 0.00 in0.0 mm 0.00 in0.0 mm 0.46 in11.7 mm
06:50 PM 62.3°F16.8°C 48.3°F9.1°C 60% 9.9 mph W15.9 kmh W 17.0 mph27.4 kmh 29.96 in1014.6 mb 0.00 in0.0 mm 0.00 in0.0 mm 0.46 in11.7 mm
06:55 PM 62.0°F16.7°C 48.4°F9.1°C 61% 11.1 mph NW17.9 kmh NW 14.3 mph23.0 kmh 29.96 in1014.6 mb 0.00 in0.0 mm 0.00 in0.0 mm 0.46 in11.7 mm
07:00 PM 62.0°F16.7°C 48.4°F9.1°C 61% 8.9 mph WNW14.3 kmh WNW 14.3 mph23.0 kmh 29.96 in1014.6 mb 0.00 in0.0 mm 0.00 in0.0 mm 0.46 in11.7 mm
07:05 PM 61.6°F16.4°C 48.0°F8.9°C 61% 5.4 mph W8.7 kmh W 7.1 mph11.4 kmh 29.96 in1014.6 mb 0.00 in0.0 mm 0.00 in0.0 mm 0.46 in11.7 mm
07:10 PM 61.4°F16.3°C 48.3°F9.1°C 62% 8.0 mph W12.9 kmh W 11.3 mph18.2 kmh 29.96 in1014.6 mb 0.00 in0.0 mm 0.00 in0.0 mm 0.46 in11.7 mm
07:15 PM 61.3°F16.3°C 48.1°F8.9°C 62% 8.9 mph W14.3 kmh W 11.6 mph18.7 kmh 29.96 in1014.6 mb 0.00 in0.0 mm 0.00 in0.0 mm 0.46 in11.7 mm
07:20 PM 61.1°F16.2°C 48.4°F9.1°C 63% 8.5 mph WNW13.7 kmh WNW 11.6 mph18.7 kmh 29.96 in1014.6 mb 0.00 in0.0 mm 0.00 in0.0 mm 0.46 in11.7 mm
07:25 PM 60.9°F16.1°C 48.2°F9.0°C 63% 9.4 mph W15.1 kmh W 11.3 mph18.2 kmh 29.96 in1014.6 mb 0.00 in0.0 mm 0.00 in0.0 mm 0.46 in11.7 mm
07:30 PM 60.7°F15.9°C 48.5°F9.2°C 64% 9.7 mph W15.6 kmh W 13.4 mph21.6 kmh 29.96 in1014.6 mb 0.00 in0.0 mm 0.00 in0.0 mm 0.46 in11.7 mm
07:35 PM 60.7°F15.9°C 48.5°F9.2°C 64% 9.8 mph WNW15.8 kmh WNW 13.4 mph21.6 kmh 29.99 in1015.6 mb 0.00 in0.0 mm 0.00 in0.0 mm 0.46 in11.7 mm
07:40 PM 60.5°F15.8°C 48.3°F9.1°C 64% 8.8 mph NW14.2 kmh NW 14.0 mph22.5 kmh 29.99 in1015.6 mb 0.00 in0.0 mm 0.00 in0.0 mm 0.46 in11.7 mm
07:45 PM 60.3°F15.7°C 48.1°F8.9°C 64% 9.2 mph WNW14.8 kmh WNW 14.0 mph22.5 kmh 29.99 in1015.6 mb 0.00 in0.0 mm 0.00 in0.0 mm 0.46 in11.7 mm
07:50 PM 60.3°F15.7°C 48.1°F8.9°C 64% 9.5 mph W15.3 kmh W 14.3 mph23.0 kmh 29.99 in1015.6 mb 0.00 in0.0 mm 0.00 in0.0 mm 0.46 in11.7 mm
07:55 PM 60.2°F15.7°C 48.4°F9.1°C 65% 8.6 mph W13.8 kmh W 14.3 mph23.0 kmh 29.99 in1015.6 mb 0.00 in0.0 mm 0.00 in0.0 mm 0.46 in11.7 mm
08:00 PM 60.2°F15.7°C 48.4°F9.1°C 65% 8.6 mph W13.8 kmh W 13.1 mph21.1 kmh 29.99 in1015.6 mb 0.00 in0.0 mm 0.00 in0.0 mm 0.46 in11.7 mm
08:05 PM 60.2°F15.7°C 48.4°F9.1°C 65% 8.3 mph W13.4 kmh W 10.7 mph17.2 kmh 29.99 in1015.6 mb 0.00 in0.0 mm 0.00 in0.0 mm 0.46 in11.7 mm
08:10 PM 60.2°F15.7°C 48.8°F9.3°C 66% 9.6 mph WNW15.4 kmh WNW 16.4 mph26.4 kmh 29.99 in1015.6 mb 0.00 in0.0 mm 0.00 in0.0 mm 0.46 in11.7 mm
08:15 PM 60.2°F15.7°C 48.8°F9.3°C 66% 9.5 mph WNW15.3 kmh WNW 16.4 mph26.4 kmh 29.99 in1015.6 mb 0.00 in0.0 mm 0.00 in0.0 mm 0.46 in11.7 mm
08:20 PM 60.2°F15.7°C 48.8°F9.3°C 66% 8.6 mph NW13.8 kmh NW 14.0 mph22.5 kmh 29.99 in1015.6 mb 0.00 in0.0 mm 0.00 in0.0 mm 0.46 in11.7 mm
08:25 PM 60.2°F15.7°C 48.8°F9.3°C 66% 10.1 mph NW16.3 kmh NW 16.7 mph26.9 kmh 29.99 in1015.6 mb 0.00 in0.0 mm 0.00 in0.0 mm 0.46 in11.7 mm
08:30 PM 60.0°F15.6°C 48.6°F9.2°C 66% 10.5 mph WNW16.9 kmh WNW 16.7 mph26.9 kmh 29.99 in1015.6 mb 0.00 in0.0 mm 0.00 in0.0 mm 0.46 in11.7 mm
08:35 PM 60.0°F15.6°C 48.6°F9.2°C 66% 10.1 mph W16.3 kmh W 13.4 mph21.6 kmh 29.99 in1015.6 mb 0.00 in0.0 mm 0.00 in0.0 mm 0.46 in11.7 mm
08:40 PM 60.0°F15.6°C 48.6°F9.2°C 66% 10.4 mph WNW16.7 kmh WNW 13.4 mph21.6 kmh 29.99 in1015.6 mb 0.00 in0.0 mm 0.00 in0.0 mm 0.46 in11.7 mm
08:45 PM 60.0°F15.6°C 49.0°F9.4°C 67% 9.7 mph WNW15.6 kmh WNW 13.4 mph21.6 kmh 29.99 in1015.6 mb 0.00 in0.0 mm 0.00 in0.0 mm 0.46 in11.7 mm
08:50 PM 60.0°F15.6°C 49.0°F9.4°C 67% 9.9 mph WNW15.9 kmh WNW 15.2 mph24.5 kmh 29.99 in1015.6 mb 0.00 in0.0 mm 0.00 in0.0 mm 0.46 in11.7 mm
08:55 PM 60.0°F15.6°C 49.0°F9.4°C 67% 9.3 mph WNW15.0 kmh WNW 15.2 mph24.5 kmh 29.99 in1015.6 mb 0.00 in0.0 mm 0.00 in0.0 mm 0.46 in11.7 mm
09:00 PM 59.8°F15.4°C 49.2°F9.6°C 68% 8.4 mph W13.5 kmh W 10.1 mph16.3 kmh 29.99 in1015.6 mb 0.00 in0.0 mm 0.00 in0.0 mm 0.46 in11.7 mm
09:05 PM 59.8°F15.4°C 49.2°F9.6°C 68% 9.6 mph W15.4 kmh W 11.6 mph18.7 kmh 29.99 in1015.6 mb 0.00 in0.0 mm 0.00 in0.0 mm 0.46 in11.7 mm
09:10 PM 59.8°F15.4°C 49.2°F9.6°C 68% 8.5 mph WNW13.7 kmh WNW 11.6 mph18.7 kmh 29.99 in1015.6 mb 0.00 in0.0 mm 0.00 in0.0 mm 0.46 in11.7 mm
09:15 PM 59.8°F15.4°C 49.6°F9.8°C 69% 7.3 mph WNW11.7 kmh WNW 10.1 mph16.3 kmh 29.99 in1015.6 mb 0.00 in0.0 mm 0.00 in0.0 mm 0.46 in11.7 mm
09:20 PM 59.8°F15.4°C 49.6°F9.8°C 69% 8.1 mph WNW13.0 kmh WNW 10.4 mph16.7 kmh 29.99 in1015.6 mb 0.00 in0.0 mm 0.00 in0.0 mm 0.46 in11.7 mm
09:25 PM 59.8°F15.4°C 49.6°F9.8°C 69% 8.0 mph WNW12.9 kmh WNW 11.3 mph18.2 kmh 29.99 in1015.6 mb 0.00 in0.0 mm 0.00 in0.0 mm 0.46 in11.7 mm
09:30 PM 59.8°F15.4°C 49.6°F9.8°C 69% 7.5 mph NW12.1 kmh NW 11.3 mph18.2 kmh 29.99 in1015.6 mb 0.00 in0.0 mm 0.00 in0.0 mm 0.46 in11.7 mm
09:35 PM 59.8°F15.4°C 50.0°F10.0°C 70% 6.8 mph WNW10.9 kmh WNW 10.7 mph17.2 kmh 29.99 in1015.6 mb 0.00 in0.0 mm 0.00 in0.0 mm 0.46 in11.7 mm
09:40 PM 59.6°F15.3°C 49.8°F9.9°C 70% 6.3 mph W10.1 kmh W 10.7 mph17.2 kmh 29.99 in1015.6 mb 0.00 in0.0 mm 0.00 in0.0 mm 0.46 in11.7 mm
09:45 PM 59.5°F15.3°C 50.0°F10.0°C 71% 5.9 mph WNW9.5 kmh WNW 8.0 mph12.9 kmh 29.99 in1015.6 mb 0.00 in0.0 mm 0.00 in0.0 mm 0.46 in11.7 mm
09:50 PM 59.5°F15.3°C 50.0°F10.0°C 71% 6.3 mph W10.1 kmh W 8.0 mph12.9 kmh 29.99 in1015.6 mb 0.00 in0.0 mm 0.00 in0.0 mm 0.46 in11.7 mm
09:55 PM 59.5°F15.3°C 50.0°F10.0°C 71% 6.4 mph W10.3 kmh W 8.3 mph13.4 kmh 29.99 in1015.6 mb 0.00 in0.0 mm 0.00 in0.0 mm 0.46 in11.7 mm
10:00 PM 59.5°F15.3°C 50.0°F10.0°C 71% 7.6 mph WNW12.2 kmh WNW 12.8 mph20.6 kmh 29.99 in1015.6 mb 0.00 in0.0 mm 0.00 in0.0 mm 0.46 in11.7 mm
10:05 PM 59.3°F15.2°C 49.9°F9.9°C 71% 7.2 mph WNW11.6 kmh WNW 12.8 mph20.6 kmh 29.99 in1015.6 mb 0.00 in0.0 mm 0.00 in0.0 mm 0.46 in11.7 mm
10:10 PM 59.3°F15.2°C 50.2°F10.1°C 72% 6.1 mph WNW9.8 kmh WNW 8.3 mph13.4 kmh 29.99 in1015.6 mb 0.00 in0.0 mm 0.00 in0.0 mm 0.46 in11.7 mm
10:15 PM 59.1°F15.1°C 50.1°F10.1°C 72% 6.4 mph WNW10.3 kmh WNW 8.3 mph13.4 kmh 29.99 in1015.6 mb 0.00 in0.0 mm 0.00 in0.0 mm 0.46 in11.7 mm
10:20 PM 59.1°F15.1°C 50.1°F10.1°C 72% 6.5 mph WNW10.5 kmh WNW 9.8 mph15.8 kmh 30.02 in1016.6 mb 0.00 in0.0 mm 0.00 in0.0 mm 0.46 in11.7 mm
10:25 PM 59.1°F15.1°C 50.1°F10.1°C 72% 6.8 mph NW10.9 kmh NW 9.8 mph15.8 kmh 30.02 in1016.6 mb 0.00 in0.0 mm 0.00 in0.0 mm 0.46 in11.7 mm
10:30 PM 58.9°F14.9°C 49.9°F9.9°C 72% 6.4 mph WNW10.3 kmh WNW 9.8 mph15.8 kmh 30.02 in1016.6 mb 0.00 in0.0 mm 0.00 in0.0 mm 0.46 in11.7 mm
10:35 PM 58.9°F14.9°C 50.3°F10.2°C 73% 6.6 mph NW10.6 kmh NW 9.5 mph15.3 kmh 30.02 in1016.6 mb 0.00 in0.0 mm 0.00 in0.0 mm 0.46 in11.7 mm
10:40 PM 58.9°F14.9°C 50.3°F10.2°C 73% 5.7 mph NW9.2 kmh NW 8.3 mph13.4 kmh 30.02 in1016.6 mb 0.00 in0.0 mm 0.00 in0.0 mm 0.46 in11.7 mm
10:45 PM 58.7°F14.8°C 50.1°F10.1°C 73% 4.9 mph WNW7.9 kmh WNW 7.4 mph11.9 kmh 30.02 in1016.6 mb 0.00 in0.0 mm 0.00 in0.0 mm 0.46 in11.7 mm
10:50 PM 58.7°F14.8°C 50.1°F10.1°C 73% 4.9 mph WNW7.9 kmh WNW 9.8 mph15.8 kmh 30.02 in1016.6 mb 0.00 in0.0 mm 0.00 in0.0 mm 0.46 in11.7 mm
10:55 PM 58.5°F14.7°C 49.9°F9.9°C 73% 4.4 mph NW7.1 kmh NW 9.8 mph15.8 kmh 30.02 in1016.6 mb 0.00 in0.0 mm 0.00 in0.0 mm 0.46 in11.7 mm
11:00 PM 58.5°F14.7°C 49.9°F9.9°C 73% 3.0 mph NW4.8 kmh NW 5.1 mph8.2 kmh 30.02 in1016.6 mb 0.00 in0.0 mm 0.00 in0.0 mm 0.34 in8.6 mm
11:05 PM 58.4°F14.7°C 50.1°F10.1°C 74% 3.5 mph WNW5.6 kmh WNW 5.7 mph9.2 kmh 30.02 in1016.6 mb 0.00 in0.0 mm 0.00 in0.0 mm 0.34 in8.6 mm
11:10 PM 58.2°F14.6°C 49.9°F9.9°C 74% 4.2 mph WNW6.8 kmh WNW 5.7 mph9.2 kmh 30.02 in1016.6 mb 0.00 in0.0 mm 0.00 in0.0 mm 0.34 in8.6 mm
11:15 PM 58.2°F14.6°C 49.9°F9.9°C 74% 3.2 mph NW5.1 kmh NW 5.4 mph8.7 kmh 30.02 in1016.6 mb 0.00 in0.0 mm 0.00 in0.0 mm 0.34 in8.6 mm
11:20 PM 58.0°F14.4°C 49.8°F9.9°C 74% 1.8 mph NW2.9 kmh NW 3.6 mph5.8 kmh 30.02 in1016.6 mb 0.00 in0.0 mm 0.00 in0.0 mm 0.34 in8.6 mm
11:25 PM 58.0°F14.4°C 50.1°F10.1°C 75% 2.7 mph WNW4.3 kmh WNW 5.1 mph8.2 kmh 30.02 in1016.6 mb 0.00 in0.0 mm 0.00 in0.0 mm 0.34 in8.6 mm
11:30 PM 58.2°F14.6°C 50.3°F10.2°C 75% 4.6 mph WNW7.4 kmh WNW 8.3 mph13.4 kmh 30.02 in1016.6 mb 0.00 in0.0 mm 0.00 in0.0 mm 0.34 in8.6 mm
11:35 PM 58.4°F14.7°C 50.5°F10.3°C 75% 5.1 mph WNW8.2 kmh WNW 8.3 mph13.4 kmh 30.02 in1016.6 mb 0.00 in0.0 mm 0.00 in0.0 mm 0.34 in8.6 mm
11:40 PM 58.5°F14.7°C 51.0°F10.6°C 76% 6.0 mph WNW9.7 kmh WNW 11.6 mph18.7 kmh 30.02 in1016.6 mb 0.00 in0.0 mm 0.00 in0.0 mm 0.34 in8.6 mm
11:45 PM 58.5°F14.7°C 51.0°F10.6°C 76% 6.5 mph NW10.5 kmh NW 11.6 mph18.7 kmh 30.02 in1016.6 mb 0.00 in0.0 mm 0.00 in0.0 mm 0.34 in8.6 mm
11:50 PM 58.9°F14.9°C 51.4°F10.8°C 76% 5.5 mph NW8.9 kmh NW 8.0 mph12.9 kmh 30.02 in1016.6 mb 0.00 in0.0 mm 0.00 in0.0 mm 0.34 in8.6 mm
11:55 PM 58.9°F14.9°C 51.4°F10.8°C 76% 5.2 mph NW8.4 kmh NW 7.1 mph11.4 kmh 30.02 in1016.6 mb 0.00 in0.0 mm 0.00 in0.0 mm 0.34 in8.6 mm